createdAt,value
2022-12-24T00:01:35.646Z,98.42
2022-12-24T00:04:02.122Z,98.38
2022-12-24T00:06:28.519Z,97.74
2022-12-24T00:08:54.933Z,97.59
2022-12-24T00:11:21.789Z,97.58
2022-12-24T00:13:48.976Z,96.91
2022-12-24T00:16:15.910Z,97.01
2022-12-24T00:18:46.156Z,97.03
2022-12-24T00:21:13.466Z,96.78
2022-12-24T00:23:40.852Z,96.78
2022-12-24T00:26:07.493Z,96.65
2022-12-24T00:28:33.931Z,96.88
2022-12-24T00:31:00.403Z,96.95
2022-12-24T00:33:26.924Z,97.53
2022-12-24T00:35:53.807Z,97.66
2022-12-24T00:38:20.376Z,97.47
2022-12-24T00:40:46.795Z,97.34
2022-12-24T00:43:13.451Z,97.68
2022-12-24T00:45:40.221Z,97.83
2022-12-24T00:48:06.823Z,97.86
2022-12-24T00:50:33.302Z,98.03
2022-12-24T00:52:59.770Z,98.02
2022-12-24T00:55:26.166Z,98.51
2022-12-24T00:57:52.720Z,98.50
2022-12-24T01:00:19.588Z,98.59
2022-12-24T01:02:46.247Z,99.13
2022-12-24T01:05:12.881Z,99.22
2022-12-24T01:07:43.681Z,99.29
2022-12-24T01:10:12.645Z,99.50
2022-12-24T01:12:39.524Z,99.68
2022-12-24T01:15:07.143Z,99.65
2022-12-24T01:17:35.517Z,100.00
2022-12-24T01:20:02.135Z,100.00
2022-12-24T01:22:28.910Z,100.00
2022-12-24T01:24:55.303Z,100.00
2022-12-24T01:27:22.000Z,100.00
2022-12-24T01:29:48.387Z,100.00
2022-12-24T01:32:14.923Z,100.00
2022-12-24T01:34:41.412Z,100.00
2022-12-24T01:37:07.862Z,100.00
2022-12-24T01:39:34.489Z,100.00
2022-12-24T01:42:19.675Z,100.00
2022-12-24T01:44:51.248Z,100.00
2022-12-24T01:47:25.667Z,100.00
2022-12-24T01:49:56.126Z,100.00
2022-12-24T01:52:30.542Z,100.00
2022-12-24T01:55:07.885Z,100.00
2022-12-24T01:57:45.071Z,100.00
2022-12-24T02:00:14.084Z,100.00
2022-12-24T02:02:43.919Z,100.00
2022-12-24T02:05:26.926Z,100.00
2022-12-24T02:07:53.502Z,100.00
2022-12-24T02:10:19.970Z,100.00
2022-12-24T02:12:47.561Z,100.00
2022-12-24T02:15:17.025Z,100.00
2022-12-24T02:18:11.092Z,100.00
2022-12-24T02:21:09.532Z,100.00
2022-12-24T02:23:41.998Z,100.00
2022-12-24T02:26:25.808Z,100.00
2022-12-24T02:28:58.074Z,100.00
2022-12-24T02:31:37.661Z,100.00
2022-12-24T02:34:34.376Z,100.00
2022-12-24T02:37:16.326Z,100.00
2022-12-24T02:39:52.786Z,100.00
2022-12-24T02:42:25.655Z,100.00
2022-12-24T02:44:58.153Z,100.00
2022-12-24T02:47:27.558Z,100.00
2022-12-24T02:49:54.320Z,100.00
2022-12-24T02:52:33.243Z,100.00
2022-12-24T02:55:04.326Z,100.00
2022-12-24T02:57:50.833Z,100.00
2022-12-24T03:00:21.675Z,100.00
2022-12-24T03:03:22.181Z,100.00
2022-12-24T03:05:54.980Z,100.00
2022-12-24T03:08:59.147Z,100.00
2022-12-24T03:11:26.018Z,100.00
2022-12-24T03:13:55.288Z,100.00
2022-12-24T03:16:26.489Z,100.00
2022-12-24T03:18:55.556Z,100.00
2022-12-24T03:21:32.978Z,100.00
2022-12-24T03:23:59.495Z,100.00
2022-12-24T03:26:28.620Z,100.00
2022-12-24T03:28:55.903Z,100.00
2022-12-24T03:31:22.454Z,100.00
2022-12-24T03:33:49.572Z,100.00
2022-12-24T03:36:16.497Z,100.00
2022-12-24T03:38:43.081Z,100.00
2022-12-24T03:41:09.548Z,100.00
2022-12-24T03:43:36.073Z,100.00
2022-12-24T03:46:06.573Z,100.00
2022-12-24T03:48:35.292Z,100.00
2022-12-24T03:51:02.268Z,100.00
2022-12-24T03:53:28.848Z,100.00
2022-12-24T03:55:55.250Z,100.00
2022-12-24T03:58:21.680Z,100.00
2022-12-24T04:00:48.139Z,100.00
2022-12-24T04:03:14.700Z,100.00
2022-12-24T04:05:41.436Z,100.00
2022-12-24T04:08:07.934Z,100.00
2022-12-24T04:10:34.354Z,100.00
2022-12-24T04:13:00.869Z,100.00
2022-12-24T04:15:27.244Z,100.00
2022-12-24T04:17:53.641Z,100.00
2022-12-24T04:20:20.023Z,100.00
2022-12-24T04:22:46.444Z,100.00
2022-12-24T04:25:12.846Z,100.00
2022-12-24T04:27:39.227Z,100.00
2022-12-24T04:30:06.499Z,100.00
2022-12-24T04:32:32.892Z,100.00
2022-12-24T04:34:59.261Z,100.00
2022-12-24T04:37:25.669Z,100.00
2022-12-24T04:39:52.055Z,100.00
2022-12-24T04:42:18.601Z,100.00
2022-12-24T04:44:45.012Z,100.00
2022-12-24T04:47:11.396Z,100.00
2022-12-24T04:49:38.095Z,100.00
2022-12-24T04:52:05.020Z,100.00
2022-12-24T04:54:31.419Z,100.00
2022-12-24T04:56:57.883Z,100.00
2022-12-24T04:59:24.270Z,100.00
2022-12-24T05:01:50.792Z,100.00
2022-12-24T05:04:17.258Z,100.00
2022-12-24T05:06:44.625Z,100.00
2022-12-24T05:09:11.007Z,100.00
2022-12-24T05:11:37.442Z,100.00
2022-12-24T05:14:03.938Z,100.00
2022-12-24T05:16:30.409Z,100.00
2022-12-24T05:18:56.915Z,100.00
2022-12-24T05:21:25.214Z,100.00
2022-12-24T05:24:10.956Z,100.00
2022-12-24T05:26:48.861Z,100.00
2022-12-24T05:29:15.695Z,100.00
2022-12-24T05:31:44.899Z,100.00
2022-12-24T05:34:12.918Z,100.00
2022-12-24T05:36:39.869Z,100.00
2022-12-24T05:39:11.471Z,100.00
2022-12-24T05:41:40.460Z,100.00
2022-12-24T05:44:06.915Z,100.00
2022-12-24T05:46:33.426Z,100.00
2022-12-24T05:48:59.828Z,100.00
2022-12-24T05:51:26.267Z,100.00
2022-12-24T05:53:52.747Z,100.00
2022-12-24T05:56:22.376Z,100.00
2022-12-24T05:58:49.547Z,100.00
2022-12-24T06:01:16.839Z,100.00
2022-12-24T06:03:43.683Z,100.00
2022-12-24T06:06:13.101Z,100.00
2022-12-24T06:08:41.111Z,100.00
2022-12-24T06:11:11.074Z,100.00
2022-12-24T06:13:37.810Z,100.00
2022-12-24T06:16:07.053Z,100.00
2022-12-24T06:18:35.183Z,100.00
2022-12-24T06:21:02.479Z,100.00
2022-12-24T06:23:31.530Z,100.00
2022-12-24T06:26:00.808Z,100.00
2022-12-24T06:28:31.811Z,100.00
2022-12-24T06:31:02.917Z,100.00
2022-12-24T06:33:31.432Z,100.00
2022-12-24T06:35:58.185Z,100.00
2022-12-24T06:38:24.677Z,100.00
2022-12-24T06:40:51.269Z,100.00
2022-12-24T06:43:17.739Z,100.00
2022-12-24T06:45:46.170Z,100.00
2022-12-24T06:48:13.357Z,100.00
2022-12-24T06:50:40.134Z,100.00
2022-12-24T06:53:07.033Z,100.00
2022-12-24T06:55:33.583Z,100.00
2022-12-24T06:57:59.980Z,100.00
2022-12-24T07:00:26.399Z,100.00
2022-12-24T07:02:52.897Z,100.00
2022-12-24T07:05:19.404Z,100.00
2022-12-24T07:07:45.791Z,100.00
2022-12-24T07:10:15.331Z,100.00
2022-12-24T07:12:42.186Z,100.00
2022-12-24T07:15:09.748Z,100.00
2022-12-24T07:17:36.636Z,100.00
2022-12-24T07:20:03.785Z,100.00
2022-12-24T07:22:30.184Z,100.00
2022-12-24T07:24:56.637Z,100.00
2022-12-24T07:27:23.165Z,100.00
2022-12-24T07:29:49.544Z,100.00
2022-12-24T07:32:16.377Z,100.00
2022-12-24T07:34:42.784Z,100.00
2022-12-24T07:37:09.239Z,100.00
2022-12-24T07:39:35.672Z,100.00
2022-12-24T07:42:02.089Z,100.00
2022-12-24T07:44:28.449Z,100.00
2022-12-24T07:46:54.930Z,100.00
2022-12-24T07:49:21.358Z,100.00
2022-12-24T07:51:47.755Z,100.00
2022-12-24T07:54:14.385Z,100.00
2022-12-24T07:56:40.789Z,100.00
2022-12-24T07:59:07.169Z,100.00
2022-12-24T08:01:33.781Z,100.00
2022-12-24T08:04:00.340Z,100.00
2022-12-24T08:06:26.717Z,100.00
2022-12-24T08:08:53.106Z,100.00
2022-12-24T08:11:19.503Z,100.00
2022-12-24T08:13:45.887Z,100.00
2022-12-24T08:16:12.519Z,100.00
2022-12-24T08:18:38.950Z,100.00
2022-12-24T08:21:09.095Z,100.00
2022-12-24T08:23:38.869Z,100.00
2022-12-24T08:26:09.867Z,100.00
2022-12-24T08:28:36.490Z,100.00
2022-12-24T08:31:03.244Z,100.00
2022-12-24T08:33:29.996Z,100.00
2022-12-24T08:35:56.497Z,100.00
2022-12-24T08:38:23.201Z,100.00
2022-12-24T08:40:50.261Z,100.00
2022-12-24T08:43:17.802Z,100.00
2022-12-24T08:45:45.436Z,100.00
2022-12-24T08:48:12.202Z,100.00
2022-12-24T08:50:40.563Z,100.00
2022-12-24T08:53:08.758Z,100.00
2022-12-24T08:55:35.360Z,100.00
2022-12-24T08:58:01.828Z,100.00
2022-12-24T09:00:28.621Z,100.00
2022-12-24T09:02:56.934Z,100.00
2022-12-24T09:05:23.455Z,100.00
2022-12-24T09:07:49.826Z,100.00
2022-12-24T09:10:17.053Z,100.00
2022-12-24T09:12:43.581Z,100.00
2022-12-24T09:15:10.978Z,100.00
2022-12-24T09:17:37.669Z,100.00
2022-12-24T09:20:06.767Z,100.00
2022-12-24T09:22:38.729Z,100.00
2022-12-24T09:25:10.388Z,100.00
2022-12-24T09:27:37.423Z,100.00
2022-12-24T09:30:05.981Z,100.00
2022-12-24T09:32:33.257Z,100.00
2022-12-24T09:34:59.785Z,100.00
2022-12-24T09:37:26.832Z,100.00
2022-12-24T09:39:53.442Z,100.00
2022-12-24T09:42:48.563Z,100.00
2022-12-24T09:45:20.772Z,100.00
2022-12-24T09:47:55.752Z,100.00
2022-12-24T09:50:40.474Z,100.00
2022-12-24T09:53:22.811Z,100.00
2022-12-24T09:55:54.427Z,100.00
2022-12-24T09:58:30.800Z,100.00
2022-12-24T10:00:57.420Z,100.00
2022-12-24T10:03:24.169Z,100.00
2022-12-24T10:06:05.814Z,100.00
2022-12-24T10:08:59.143Z,100.00
2022-12-24T10:11:53.908Z,100.00
2022-12-24T10:14:29.063Z,100.00
2022-12-24T10:17:21.440Z,100.00
2022-12-24T10:19:59.570Z,100.00
2022-12-24T10:22:25.917Z,100.00
2022-12-24T10:25:14.623Z,100.00
2022-12-24T10:27:41.049Z,100.00
2022-12-24T10:30:22.660Z,100.00
2022-12-24T10:32:52.639Z,100.00
2022-12-24T10:35:23.977Z,100.00
2022-12-24T10:37:52.670Z,100.00
2022-12-24T10:40:43.028Z,100.00
2022-12-24T10:43:17.069Z,100.00
2022-12-24T10:45:47.502Z,100.00
2022-12-24T10:48:22.846Z,100.00
2022-12-24T10:50:58.269Z,100.00
2022-12-24T10:53:37.891Z,100.00
2022-12-24T10:56:09.270Z,100.00
2022-12-24T10:58:36.193Z,100.00
2022-12-24T11:01:03.699Z,100.00
2022-12-24T11:03:31.860Z,100.00
2022-12-24T11:06:12.154Z,100.00
2022-12-24T11:08:42.802Z,99.93
2022-12-24T11:11:20.693Z,99.58
2022-12-24T11:13:50.100Z,99.22
2022-12-24T11:16:26.624Z,99.15
2022-12-24T11:18:56.175Z,99.19
2022-12-24T11:21:30.372Z,99.44
2022-12-24T11:23:59.623Z,98.92
2022-12-24T11:26:29.716Z,99.17
2022-12-24T11:29:19.178Z,98.79
2022-12-24T11:31:47.258Z,98.59
2022-12-24T11:34:24.926Z,98.12
2022-12-24T11:36:53.290Z,97.87
2022-12-24T11:39:22.775Z,97.99
2022-12-24T11:41:51.215Z,97.70
2022-12-24T11:44:26.554Z,97.67
2022-12-24T11:46:57.185Z,97.39
2022-12-24T11:49:31.001Z,97.32
2022-12-24T11:52:00.556Z,97.07
2022-12-24T11:54:31.209Z,96.57
2022-12-24T11:57:00.974Z,96.36
2022-12-24T11:59:38.925Z,96.03
2022-12-24T12:02:14.810Z,95.87
2022-12-24T12:04:43.105Z,95.73
2022-12-24T12:07:15.651Z,95.21
2022-12-24T12:09:54.167Z,94.21
2022-12-24T12:12:28.151Z,94.74
2022-12-24T12:14:59.916Z,94.73
2022-12-24T12:17:35.573Z,94.86
2022-12-24T12:20:19.852Z,94.89
2022-12-24T12:23:12.449Z,94.26
2022-12-24T12:25:48.399Z,94.10
2022-12-24T12:28:31.906Z,94.66
2022-12-24T12:31:20.331Z,94.30
2022-12-24T12:33:52.729Z,93.90
2022-12-24T12:36:30.466Z,93.33
2022-12-24T12:38:56.956Z,92.56
2022-12-24T12:41:32.471Z,92.18
2022-12-24T12:44:01.755Z,91.91
2022-12-24T12:46:28.195Z,91.64
2022-12-24T12:49:20.697Z,91.89
2022-12-24T12:52:03.123Z,90.78
2022-12-24T12:54:36.237Z,91.14
2022-12-24T12:57:22.120Z,90.78
2022-12-24T13:00:03.335Z,90.09
2022-12-24T13:02:40.901Z,90.61
2022-12-24T13:05:45.207Z,90.47
2022-12-24T13:08:29.901Z,88.46
2022-12-24T13:11:05.497Z,88.52
2022-12-24T13:13:57.163Z,88.80
2022-12-24T13:16:58.030Z,87.68
2022-12-24T13:19:47.053Z,85.44
2022-12-24T13:22:18.247Z,84.10
2022-12-24T13:24:52.210Z,82.61
2022-12-24T13:27:24.578Z,81.72
2022-12-24T13:29:54.864Z,80.36
2022-12-24T13:32:21.396Z,80.07
2022-12-24T13:35:00.441Z,80.23
2022-12-24T13:37:35.976Z,76.60
2022-12-24T13:40:08.459Z,76.60
2022-12-24T13:42:59.484Z,76.31
2022-12-24T13:45:29.302Z,75.96
2022-12-24T13:47:56.863Z,76.54
2022-12-24T13:50:50.929Z,75.93
2022-12-24T13:53:29.315Z,76.59
2022-12-24T13:55:59.277Z,75.80
2022-12-24T13:58:26.036Z,76.44
2022-12-24T14:00:58.936Z,77.39
2022-12-24T14:03:36.875Z,76.75
2022-12-24T14:06:10.426Z,77.79
2022-12-24T14:08:43.480Z,78.48
2022-12-24T14:11:23.175Z,78.76
2022-12-24T14:13:51.346Z,79.74
2022-12-24T14:16:46.548Z,80.24
2022-12-24T14:19:15.956Z,80.71
2022-12-24T14:21:51.782Z,81.21
2022-12-24T14:24:25.416Z,81.75
2022-12-24T14:26:59.353Z,82.15
2022-12-24T14:29:32.329Z,82.64
2022-12-24T14:32:00.627Z,82.92
2022-12-24T14:34:27.371Z,82.89
2022-12-24T14:36:56.163Z,81.75
2022-12-24T14:39:22.478Z,82.77
2022-12-24T14:41:59.917Z,82.77
2022-12-24T14:44:37.490Z,83.10
2022-12-24T14:47:23.119Z,84.02
2022-12-24T14:50:32.917Z,85.27
2022-12-24T14:53:19.107Z,85.09
2022-12-24T14:55:48.494Z,84.24
2022-12-24T14:58:25.117Z,85.21
2022-12-24T15:00:57.717Z,87.02
2022-12-24T15:03:32.566Z,86.48
2022-12-24T15:06:02.029Z,86.46
2022-12-24T15:08:32.243Z,87.03
2022-12-24T15:11:04.904Z,87.58
2022-12-24T15:13:42.821Z,86.60
2022-12-24T15:16:13.123Z,86.44
2022-12-24T15:18:55.250Z,86.39
2022-12-24T15:21:30.034Z,86.64
2022-12-24T15:23:56.997Z,86.66
2022-12-24T15:26:37.263Z,86.90
2022-12-24T15:29:20.629Z,86.96
2022-12-24T15:31:52.869Z,86.71
2022-12-24T15:34:35.210Z,87.72
2022-12-24T15:37:12.028Z,87.47
2022-12-24T15:39:39.607Z,89.01
2022-12-24T15:42:14.116Z,89.41
2022-12-24T15:44:44.082Z,89.42
2022-12-24T15:47:25.562Z,89.23
2022-12-24T15:49:52.777Z,90.23
2022-12-24T15:52:24.531Z,91.20
2022-12-24T15:54:57.417Z,92.13
2022-12-24T15:57:29.734Z,92.25
2022-12-24T15:59:58.347Z,92.22
2022-12-24T16:02:24.848Z,93.17
2022-12-24T16:04:51.483Z,93.03
2022-12-24T16:07:25.859Z,93.58
2022-12-24T16:09:52.310Z,94.54
2022-12-24T16:12:25.551Z,94.43
2022-12-24T16:14:57.471Z,94.07
2022-12-24T16:17:30.317Z,94.59
2022-12-24T16:20:04.139Z,95.21
2022-12-24T16:22:35.150Z,95.33
2022-12-24T16:25:22.792Z,96.05
2022-12-24T16:32:01.465Z,96.98
2022-12-24T16:34:30.662Z,97.81
2022-12-24T16:36:58.253Z,98.24
2022-12-24T16:39:33.562Z,98.71
2022-12-24T16:42:20.937Z,98.84
2022-12-24T16:44:47.404Z,98.87
2022-12-24T16:47:18.368Z,99.04
2022-12-24T16:49:44.793Z,99.45
2022-12-24T16:52:23.124Z,99.87
2022-12-24T16:54:50.086Z,100.00
2022-12-24T16:57:17.128Z,100.00
2022-12-24T16:59:43.721Z,100.00
2022-12-24T17:02:15.902Z,100.00
2022-12-24T17:04:42.882Z,100.00
2022-12-24T17:07:14.120Z,100.00
2022-12-24T17:09:40.648Z,100.00
2022-12-24T17:12:07.229Z,100.00
2022-12-24T17:14:33.864Z,100.00
2022-12-24T17:17:00.407Z,100.00
2022-12-24T17:19:26.830Z,100.00
2022-12-24T17:21:53.352Z,100.00
2022-12-24T17:24:19.753Z,100.00
2022-12-24T17:26:46.470Z,100.00
2022-12-24T17:29:14.215Z,100.00
2022-12-24T17:31:42.610Z,100.00
2022-12-24T17:34:09.589Z,100.00
2022-12-24T17:36:36.305Z,100.00
2022-12-24T17:39:02.698Z,100.00
2022-12-24T17:41:29.408Z,100.00
2022-12-24T17:43:55.781Z,100.00
2022-12-24T17:46:23.701Z,100.00
2022-12-24T17:48:52.238Z,100.00
2022-12-24T17:51:22.456Z,100.00
2022-12-24T17:53:49.850Z,100.00
2022-12-24T17:56:17.440Z,100.00
2022-12-24T17:58:45.612Z,100.00
2022-12-24T18:01:30.302Z,100.00
2022-12-24T18:03:59.174Z,100.00
2022-12-24T18:06:26.018Z,100.00
2022-12-24T18:08:52.525Z,100.00
2022-12-24T18:11:34.805Z,100.00
2022-12-24T18:14:03.023Z,100.00
2022-12-24T18:16:31.346Z,100.00
2022-12-24T18:18:59.276Z,100.00
2022-12-24T18:21:28.354Z,100.00
2022-12-24T18:23:56.505Z,100.00
2022-12-24T18:26:25.353Z,100.00
2022-12-24T18:28:54.556Z,100.00
2022-12-24T18:31:21.305Z,100.00
2022-12-24T18:33:49.288Z,100.00
2022-12-24T18:36:16.353Z,100.00
2022-12-24T18:38:42.867Z,100.00
2022-12-24T18:41:15.234Z,100.00
2022-12-24T18:43:41.822Z,100.00
2022-12-24T18:46:09.162Z,100.00
2022-12-24T18:48:36.132Z,100.00
2022-12-24T18:51:03.114Z,100.00
2022-12-24T18:53:29.570Z,100.00
2022-12-24T18:56:02.606Z,100.00
2022-12-24T18:58:28.993Z,100.00
2022-12-24T19:00:55.516Z,100.00
2022-12-24T19:03:22.054Z,100.00
2022-12-24T19:05:48.532Z,100.00
2022-12-24T19:08:47.300Z,100.00
2022-12-24T19:11:01.646Z,100.00
2022-12-24T19:13:28.068Z,100.00
2022-12-24T19:15:54.573Z,100.00
2022-12-24T19:18:20.995Z,100.00
2022-12-24T19:20:47.405Z,100.00
2022-12-24T19:23:14.874Z,100.00
2022-12-24T19:25:41.361Z,100.00
2022-12-24T19:28:10.637Z,100.00
2022-12-24T19:30:40.075Z,100.00
2022-12-24T19:33:06.501Z,100.00
2022-12-24T19:35:33.196Z,100.00
2022-12-24T19:37:59.709Z,100.00
2022-12-24T19:40:26.513Z,100.00
2022-12-24T19:42:53.206Z,100.00
2022-12-24T19:45:20.855Z,100.00
2022-12-24T19:47:48.629Z,100.00
2022-12-24T19:50:16.085Z,100.00
2022-12-24T19:52:42.860Z,100.00
2022-12-24T19:55:10.109Z,100.00
2022-12-24T19:57:36.739Z,100.00
2022-12-24T20:00:05.619Z,100.00
2022-12-24T20:02:38.730Z,100.00
2022-12-24T20:05:06.134Z,100.00
2022-12-24T20:07:32.615Z,100.00
2022-12-24T20:09:59.093Z,100.00
2022-12-24T20:12:25.604Z,100.00
2022-12-24T20:14:55.469Z,100.00
2022-12-24T20:17:21.879Z,100.00
2022-12-24T20:19:48.269Z,100.00
2022-12-24T20:22:14.680Z,100.00
2022-12-24T20:24:41.108Z,100.00
2022-12-24T20:27:07.564Z,100.00
2022-12-24T20:29:33.924Z,100.00
2022-12-24T20:32:00.405Z,100.00
2022-12-24T20:34:26.827Z,100.00
2022-12-24T20:36:53.291Z,100.00
2022-12-24T20:39:19.711Z,100.00
2022-12-24T20:41:46.164Z,100.00
2022-12-24T20:44:12.625Z,100.00
2022-12-24T20:46:39.189Z,100.00
2022-12-24T20:49:05.610Z,100.00
2022-12-24T20:51:32.175Z,100.00
2022-12-24T20:54:01.276Z,100.00
2022-12-24T20:56:28.281Z,100.00
2022-12-24T20:58:54.730Z,100.00
2022-12-24T21:01:24.540Z,100.00
2022-12-24T21:03:53.362Z,100.00
2022-12-24T21:06:20.333Z,100.00
2022-12-24T21:08:48.875Z,100.00
2022-12-24T21:11:34.237Z,100.00
2022-12-24T21:14:03.706Z,100.00
2022-12-24T21:16:32.448Z,100.00
2022-12-24T21:18:59.154Z,100.00
2022-12-24T21:21:25.575Z,100.00
2022-12-24T21:23:52.325Z,100.00
2022-12-24T21:26:19.741Z,100.00
2022-12-24T21:28:46.279Z,100.00
2022-12-24T21:31:14.414Z,100.00
2022-12-24T21:33:41.426Z,100.00
2022-12-24T21:36:09.469Z,100.00
2022-12-24T21:38:36.052Z,100.00
2022-12-24T21:41:09.198Z,100.00
2022-12-24T21:43:36.637Z,100.00
2022-12-24T21:46:11.907Z,100.00
2022-12-24T21:48:57.074Z,100.00
2022-12-24T21:51:25.963Z,100.00
2022-12-24T21:54:10.864Z,100.00
2022-12-24T21:56:56.962Z,100.00
2022-12-24T21:59:27.268Z,100.00
2022-12-24T22:01:54.496Z,100.00
2022-12-24T22:04:21.106Z,100.00
2022-12-24T22:07:06.214Z,100.00
2022-12-24T22:09:51.134Z,100.00
2022-12-24T22:12:17.860Z,100.00
2022-12-24T22:14:44.298Z,100.00
2022-12-24T22:17:10.801Z,100.00
2022-12-24T22:19:37.238Z,100.00
2022-12-24T22:22:04.160Z,100.00
2022-12-24T22:24:30.573Z,100.00
2022-12-24T22:26:57.650Z,100.00
2022-12-24T22:29:24.560Z,100.00
2022-12-24T22:31:50.985Z,100.00
2022-12-24T22:34:17.390Z,100.00
2022-12-24T22:36:44.148Z,100.00
2022-12-24T22:39:10.560Z,100.00
2022-12-24T22:41:37.001Z,100.00
2022-12-24T22:44:03.413Z,100.00
2022-12-24T22:46:30.178Z,100.00
2022-12-24T22:48:56.646Z,100.00
2022-12-24T22:51:23.098Z,100.00
2022-12-24T22:53:49.641Z,100.00
2022-12-24T22:56:19.736Z,100.00
2022-12-24T22:58:46.772Z,100.00
2022-12-24T23:01:13.365Z,100.00
2022-12-24T23:03:39.971Z,100.00
2022-12-24T23:06:07.575Z,100.00
2022-12-24T23:08:36.259Z,100.00
2022-12-24T23:11:12.997Z,100.00
2022-12-24T23:14:00.539Z,100.00
2022-12-24T23:16:28.541Z,100.00
2022-12-24T23:18:58.865Z,100.00
2022-12-24T23:21:25.433Z,100.00
2022-12-24T23:23:52.602Z,100.00
2022-12-24T23:26:20.810Z,100.00
2022-12-24T23:28:48.558Z,100.00
2022-12-24T23:31:16.066Z,100.00
2022-12-24T23:33:42.545Z,100.00
2022-12-24T23:36:09.893Z,100.00
2022-12-24T23:38:36.342Z,100.00
2022-12-24T23:41:05.504Z,100.00
2022-12-24T23:43:31.930Z,100.00
2022-12-24T23:45:58.632Z,100.00
2022-12-24T23:48:25.700Z,100.00
2022-12-24T23:50:52.540Z,100.00
2022-12-24T23:53:19.739Z,100.00
2022-12-24T23:55:47.054Z,100.00
2022-12-24T23:58:15.713Z,100.00
